createdAt,value
2017-12-20T00:00:45.730Z,76.3
2017-12-20T00:01:48.227Z,76.4
2017-12-20T00:02:50.729Z,76.4
2017-12-20T00:03:53.224Z,76.5
2017-12-20T00:04:56.034Z,76.6
2017-12-20T00:05:58.588Z,76.7
2017-12-20T00:07:01.024Z,76.6
2017-12-20T00:08:03.539Z,76.6
2017-12-20T00:09:06.030Z,76.6
2017-12-20T00:10:08.523Z,76.6
2017-12-20T00:11:11.011Z,76.6
2017-12-20T00:12:13.506Z,76.5
2017-12-20T00:13:15.997Z,76.6
2017-12-20T00:14:18.496Z,76.6
2017-12-20T00:15:20.976Z,76.6
2017-12-20T00:16:23.466Z,76.5
2017-12-20T00:17:25.964Z,76.5
2017-12-20T00:18:28.751Z,76.5
2017-12-20T00:19:31.249Z,76.4
2017-12-20T00:20:33.740Z,76.4
2017-12-20T00:21:36.227Z,76.5
2017-12-20T00:22:38.736Z,76.3
2017-12-20T00:23:41.221Z,76.2
2017-12-20T00:24:43.703Z,76.2
2017-12-20T00:25:46.200Z,76.1
2017-12-20T00:26:48.686Z,76.3
2017-12-20T00:27:51.174Z,76.4
2017-12-20T00:28:53.679Z,76.5
2017-12-20T00:29:56.152Z,76.5
2017-12-20T00:30:58.644Z,76.4
2017-12-20T00:32:01.146Z,76.6
2017-12-20T00:33:03.917Z,76.8
2017-12-20T00:34:06.713Z,76.9
2017-12-20T00:35:09.520Z,77
2017-12-20T00:36:12.014Z,77
2017-12-20T00:37:14.503Z,77
2017-12-20T00:38:16.995Z,77
2017-12-20T00:39:19.494Z,76.9
2017-12-20T00:40:21.973Z,76.8
2017-12-20T00:41:24.478Z,76.8
2017-12-20T00:42:26.964Z,76.8
2017-12-20T00:43:29.466Z,76.8
2017-12-20T00:44:31.960Z,76.7
2017-12-20T00:45:34.458Z,76.9
2017-12-20T00:46:36.951Z,76.8
2017-12-20T00:47:39.459Z,76.6
2017-12-20T00:48:41.932Z,76.8
2017-12-20T00:49:44.426Z,76.7
2017-12-20T00:50:46.934Z,76.7
2017-12-20T00:51:49.425Z,76.7
2017-12-20T00:52:52.222Z,76.7
2017-12-20T00:53:54.713Z,76.6
2017-12-20T00:54:57.198Z,76.4
2017-12-20T00:56:00.000Z,76.5
2017-12-20T00:57:02.780Z,76.5
2017-12-20T00:58:05.565Z,76.4
2017-12-20T00:59:08.056Z,76.4
2017-12-20T01:00:10.836Z,76.3
2017-12-20T01:01:13.907Z,76.3
2017-12-20T01:02:16.403Z,76.2
2017-12-20T01:03:18.883Z,76
2017-12-20T01:04:21.387Z,76.1
2017-12-20T01:05:23.869Z,76.1
2017-12-20T01:06:26.364Z,76.3
2017-12-20T01:07:28.855Z,76.6
2017-12-20T01:08:31.352Z,76.6
2017-12-20T01:09:34.140Z,76.5
2017-12-20T01:10:36.919Z,76.5
2017-12-20T01:11:39.406Z,76.4
2017-12-20T01:12:41.908Z,76.5
2017-12-20T01:13:44.394Z,76.6
2017-12-20T01:14:46.881Z,76.8
2017-12-20T01:15:49.379Z,76.6
2017-12-20T01:16:51.872Z,76.5
2017-12-20T01:17:54.363Z,77.5
2017-12-20T01:18:56.855Z,77.5
2017-12-20T01:19:59.339Z,77.6
2017-12-20T01:21:02.132Z,77.9
2017-12-20T01:22:04.623Z,77.8
2017-12-20T01:23:07.122Z,77.8
2017-12-20T01:24:09.618Z,77.6
2017-12-20T01:25:12.108Z,77.9
2017-12-20T01:26:14.598Z,77.9
2017-12-20T01:27:17.105Z,78
2017-12-20T01:28:19.592Z,78
2017-12-20T01:29:22.071Z,78.2
2017-12-20T01:30:24.567Z,78.1
2017-12-20T01:31:27.045Z,77.8
2017-12-20T01:32:29.541Z,77.7
2017-12-20T01:33:32.034Z,77.9
2017-12-20T01:34:34.517Z,77.8
2017-12-20T01:35:37.011Z,77.8
2017-12-20T01:36:39.804Z,77.7
2017-12-20T01:37:42.296Z,77.7
2017-12-20T01:38:44.778Z,77.7
2017-12-20T01:39:47.266Z,77.6
2017-12-20T01:40:49.759Z,77.6
2017-12-20T01:41:52.252Z,77.7
2017-12-20T01:42:55.328Z,77.8
2017-12-20T01:43:57.817Z,77.8
2017-12-20T01:45:00.303Z,77.9
2017-12-20T01:46:02.815Z,78.1
2017-12-20T01:47:05.314Z,78.2
2017-12-20T01:48:07.795Z,78.1
2017-12-20T01:49:10.291Z,78.1
2017-12-20T01:50:12.779Z,77.9
2017-12-20T01:51:15.278Z,78
2017-12-20T01:52:17.776Z,78
2017-12-20T01:53:20.244Z,78
2017-12-20T01:54:22.739Z,77.9
2017-12-20T01:55:25.237Z,78
2017-12-20T01:56:27.725Z,77.9
2017-12-20T01:57:30.220Z,77.9
2017-12-20T01:58:32.994Z,78.1
2017-12-20T01:59:35.767Z,78.2
2017-12-20T02:00:38.274Z,78.4
2017-12-20T02:01:41.082Z,78.5
2017-12-20T02:02:43.564Z,78.3
2017-12-20T02:03:46.063Z,78.3
2017-12-20T02:04:48.557Z,78.2
2017-12-20T02:05:51.045Z,78.1
2017-12-20T02:06:53.531Z,78
2017-12-20T02:07:56.029Z,77.9
2017-12-20T02:08:58.519Z,77.9
2017-12-20T02:10:01.301Z,78
2017-12-20T02:11:03.791Z,77.7
2017-12-20T02:12:06.295Z,77.8
2017-12-20T02:13:08.775Z,77.8
2017-12-20T02:14:11.276Z,77.7
2017-12-20T02:15:13.765Z,77.8
2017-12-20T02:16:16.258Z,77.9
2017-12-20T02:17:19.041Z,78.1
2017-12-20T02:18:21.842Z,78.2
2017-12-20T02:19:24.312Z,78.1
2017-12-20T02:20:26.818Z,78.1
2017-12-20T02:21:29.311Z,78.1
2017-12-20T02:22:32.097Z,77.9
2017-12-20T02:23:34.576Z,78
2017-12-20T02:24:37.073Z,78
2017-12-20T02:25:39.871Z,77.9
2017-12-20T02:26:42.384Z,77.9
2017-12-20T02:27:44.860Z,77.8
2017-12-20T02:28:47.363Z,77.9
2017-12-20T02:29:50.144Z,77.8
2017-12-20T02:30:52.632Z,77.8
2017-12-20T02:31:55.424Z,77.8
2017-12-20T02:32:57.913Z,77.8
2017-12-20T02:34:00.390Z,78.1
2017-12-20T02:35:03.190Z,78.2
2017-12-20T02:36:05.697Z,78.2
2017-12-20T02:37:08.183Z,78
2017-12-20T02:38:10.664Z,78.3
2017-12-20T02:39:13.486Z,78.3
2017-12-20T02:40:15.982Z,78.5
2017-12-20T02:41:18.800Z,78.7
2017-12-20T02:42:21.302Z,78.8
2017-12-20T02:43:23.770Z,78.7
2017-12-20T02:44:26.264Z,78.6
2017-12-20T02:45:28.764Z,78.5
2017-12-20T02:46:31.241Z,78.4
2017-12-20T02:47:33.741Z,78.3
2017-12-20T02:48:36.224Z,78.3
2017-12-20T02:49:38.718Z,78.3
2017-12-20T02:50:41.208Z,78.3
2017-12-20T02:51:43.699Z,78.4
2017-12-20T02:52:46.171Z,78.6
2017-12-20T02:53:48.964Z,78.7
2017-12-20T02:54:51.474Z,78.8
2017-12-20T02:55:53.959Z,78.7
2017-12-20T02:56:56.454Z,78.6
2017-12-20T02:57:59.233Z,78.5
2017-12-20T02:59:01.723Z,78.3
2017-12-20T03:00:04.225Z,78.1
2017-12-20T03:01:06.715Z,78
2017-12-20T03:02:09.189Z,78.1
2017-12-20T03:03:11.992Z,78.2
2017-12-20T03:04:14.485Z,78.2
2017-12-20T03:05:16.968Z,78.2
2017-12-20T03:06:19.454Z,78.2
2017-12-20T03:07:21.960Z,78.3
2017-12-20T03:08:24.738Z,78.3
2017-12-20T03:09:27.238Z,78.2
2017-12-20T03:10:29.726Z,78.3
2017-12-20T03:11:32.223Z,78.3
2017-12-20T03:12:34.716Z,78.3
2017-12-20T03:13:37.206Z,78.3
2017-12-20T03:14:39.686Z,78.2
2017-12-20T03:15:42.180Z,78.1
2017-12-20T03:16:44.673Z,78.1
2017-12-20T03:17:47.169Z,78.1
2017-12-20T03:18:49.655Z,78
2017-12-20T03:19:52.153Z,78.1
2017-12-20T03:20:54.637Z,78.2
2017-12-20T03:21:57.128Z,78.2
2017-12-20T03:22:59.616Z,78.4
2017-12-20T03:24:02.110Z,78.5
2017-12-20T03:25:04.599Z,78.6
2017-12-20T03:26:07.102Z,78.7
2017-12-20T03:27:09.884Z,78.6
2017-12-20T03:28:12.390Z,78.2
2017-12-20T03:29:15.164Z,78.3
2017-12-20T03:30:17.651Z,78.4
2017-12-20T03:31:20.443Z,78.4
2017-12-20T03:32:22.935Z,78.4
2017-12-20T03:33:25.423Z,78.4
2017-12-20T03:34:28.205Z,78.6
2017-12-20T03:35:31.292Z,78.6
2017-12-20T03:36:33.789Z,78.6
2017-12-20T03:37:36.591Z,78.7
2017-12-20T03:38:39.089Z,78.7
2017-12-20T03:39:41.588Z,78.8
2017-12-20T03:40:44.063Z,78.7
2017-12-20T03:41:46.571Z,78.8
2017-12-20T03:42:49.039Z,78.7
2017-12-20T03:43:51.530Z,78.7
2017-12-20T03:44:54.017Z,78.7
2017-12-20T03:45:56.508Z,78.5
2017-12-20T03:46:58.997Z,78.4
2017-12-20T03:48:01.793Z,78.3
2017-12-20T03:49:04.275Z,78.2
2017-12-20T03:50:06.772Z,78.4
2017-12-20T03:51:09.260Z,78.5
2017-12-20T03:52:11.744Z,78.6
2017-12-20T03:53:14.232Z,78.6
2017-12-20T03:54:16.733Z,78.5
2017-12-20T03:55:19.226Z,78.5
2017-12-20T03:56:21.712Z,78.5
2017-12-20T03:57:24.203Z,78.7
2017-12-20T03:58:26.986Z,78.9
2017-12-20T03:59:29.475Z,78.8
2017-12-20T04:00:31.978Z,78.9
2017-12-20T04:01:34.457Z,78.6
2017-12-20T04:02:36.949Z,78.7
2017-12-20T04:03:39.457Z,78.7
2017-12-20T04:04:41.944Z,78.8
2017-12-20T04:05:44.431Z,78.7
2017-12-20T04:06:47.219Z,78.7
2017-12-20T04:07:49.708Z,78.7
2017-12-20T04:08:52.196Z,78.7
2017-12-20T04:09:54.683Z,78.7
2017-12-20T04:10:57.177Z,78.5
2017-12-20T04:12:00.197Z,78.7
2017-12-20T04:13:03.007Z,78.5
2017-12-20T04:14:05.771Z,78.6
2017-12-20T04:15:08.261Z,78.6
2017-12-20T04:16:10.769Z,78.5
2017-12-20T04:17:13.260Z,78.5
2017-12-20T04:18:16.357Z,78.5
2017-12-20T04:19:18.846Z,78.6
2017-12-20T04:20:21.338Z,78.8
2017-12-20T04:21:24.115Z,78.9
2017-12-20T04:22:26.598Z,78.9
2017-12-20T04:23:29.080Z,78.9
2017-12-20T04:24:31.570Z,79.2
2017-12-20T04:25:34.077Z,79.2
2017-12-20T04:26:36.556Z,79.2
2017-12-20T04:27:39.051Z,79.2
2017-12-20T04:28:41.543Z,79.2
2017-12-20T04:29:44.048Z,79.2
2017-12-20T04:30:46.546Z,79.1
2017-12-20T04:31:49.042Z,79
2017-12-20T04:32:51.526Z,79
2017-12-20T04:33:54.036Z,78.8
2017-12-20T04:34:56.837Z,78.7
2017-12-20T04:35:59.323Z,78.4
2017-12-20T04:37:01.810Z,78.6
2017-12-20T04:38:04.306Z,78.7
2017-12-20T04:39:06.786Z,78.8
2017-12-20T04:40:09.288Z,78.8
2017-12-20T04:41:11.761Z,78.9
2017-12-20T04:42:14.254Z,79
2017-12-20T04:43:17.035Z,78.9
2017-12-20T04:44:19.520Z,78.8
2017-12-20T04:45:22.011Z,78.8
2017-12-20T04:46:24.509Z,78.9
2017-12-20T04:47:26.997Z,78.7
2017-12-20T04:48:29.504Z,78.6
2017-12-20T04:49:31.987Z,78.6
2017-12-20T04:50:34.471Z,78.6
2017-12-20T04:51:36.977Z,78.7
2017-12-20T04:52:39.463Z,78.7
2017-12-20T04:53:42.255Z,78.7
2017-12-20T04:54:44.754Z,78.7
2017-12-20T04:55:47.243Z,78.8
2017-12-20T04:56:49.746Z,78.8
2017-12-20T04:57:52.248Z,78.8
2017-12-20T04:58:54.715Z,78.7
2017-12-20T04:59:57.224Z,78.8
2017-12-20T05:00:59.714Z,78.9
2017-12-20T05:02:02.500Z,78.9
2017-12-20T05:03:04.986Z,78.9
2017-12-20T05:04:07.492Z,79
2017-12-20T05:05:10.115Z,79.1
2017-12-20T05:06:12.463Z,79.1
2017-12-20T05:07:14.956Z,79.1
2017-12-20T05:08:17.444Z,79.3
2017-12-20T05:09:19.938Z,79.3
2017-12-20T05:10:22.432Z,79.1
2017-12-20T05:11:24.918Z,79
2017-12-20T05:12:27.412Z,79
2017-12-20T05:13:30.203Z,78.9
2017-12-20T05:14:32.694Z,78.8
2017-12-20T05:15:35.176Z,78.8
2017-12-20T05:16:37.666Z,78.8
2017-12-20T05:17:40.159Z,78.9
2017-12-20T05:18:42.652Z,78.8
2017-12-20T05:19:45.144Z,78.8
2017-12-20T05:20:47.637Z,78.4
2017-12-20T05:21:50.120Z,78.5
2017-12-20T05:22:52.624Z,78.7
2017-12-20T05:23:55.117Z,78.9
2017-12-20T05:24:57.606Z,79
2017-12-20T05:26:00.399Z,78.9
2017-12-20T05:27:02.895Z,79
2017-12-20T05:28:05.394Z,79.1
2017-12-20T05:29:07.880Z,79
2017-12-20T05:30:10.367Z,79
2017-12-20T05:31:12.856Z,79.1
2017-12-20T05:32:15.354Z,79.1
2017-12-20T05:33:17.838Z,79.2
2017-12-20T05:34:20.333Z,79
2017-12-20T05:35:22.822Z,79
2017-12-20T05:36:25.319Z,79
2017-12-20T05:37:28.093Z,78.1
2017-12-20T05:38:30.584Z,78.1
2017-12-20T05:39:33.092Z,78.1
2017-12-20T05:40:36.169Z,78.1
2017-12-20T05:41:38.662Z,77.9
2017-12-20T05:42:41.163Z,77.9
2017-12-20T05:43:43.655Z,77.8
2017-12-20T05:44:46.156Z,77.5
2017-12-20T05:45:48.644Z,77.6
2017-12-20T05:46:51.120Z,77.6
2017-12-20T05:47:53.613Z,77.6
2017-12-20T05:48:56.112Z,77.6
2017-12-20T05:49:58.903Z,77.8
2017-12-20T05:51:01.404Z,77.8
2017-12-20T05:52:03.895Z,77.9
2017-12-20T05:53:06.704Z,77.9
2017-12-20T05:54:09.204Z,78
2017-12-20T05:55:11.982Z,78
2017-12-20T05:56:14.483Z,78
2017-12-20T05:57:17.269Z,77.8
2017-12-20T05:58:19.745Z,77.8
2017-12-20T05:59:22.238Z,77.9
2017-12-20T06:00:24.722Z,77.8
2017-12-20T06:01:27.213Z,77.9
2017-12-20T06:02:29.694Z,77.8
2017-12-20T06:03:32.496Z,77.8
2017-12-20T06:04:34.983Z,77.8
2017-12-20T06:05:37.474Z,77.8
2017-12-20T06:06:39.969Z,77.9
2017-12-20T06:07:42.459Z,78
2017-12-20T06:08:44.949Z,77.9
2017-12-20T06:09:47.452Z,78
2017-12-20T06:10:50.223Z,78
2017-12-20T06:11:53.009Z,78.1
2017-12-20T06:12:55.883Z,78.1
2017-12-20T06:13:58.762Z,78
2017-12-20T06:15:01.251Z,77.8
2017-12-20T06:16:03.745Z,77.7
2017-12-20T06:17:06.234Z,77.8
2017-12-20T06:18:08.738Z,77.8
2017-12-20T06:19:11.228Z,77.8
2017-12-20T06:20:13.719Z,77.9
2017-12-20T06:21:21.655Z,77.8
2017-12-20T06:22:33.246Z,77.8
2017-12-20T06:23:41.756Z,77.7
2017-12-20T06:24:48.230Z,77.6
2017-12-20T06:26:03.554Z,77.5
2017-12-20T06:27:16.021Z,77.4
2017-12-20T06:28:22.743Z,77.4
2017-12-20T06:29:59.829Z,77.5
2017-12-20T06:31:09.988Z,77.7
2017-12-20T06:32:18.070Z,77.7
2017-12-20T06:33:23.800Z,77.6
2017-12-20T06:34:45.592Z,77.6
2017-12-20T06:35:49.848Z,77.6
2017-12-20T06:36:55.373Z,77.6
2017-12-20T06:38:01.095Z,77.8
2017-12-20T06:39:08.867Z,77.9
2017-12-20T06:40:22.897Z,77.9
2017-12-20T06:41:26.651Z,77.9
2017-12-20T06:42:30.690Z,77.9
2017-12-20T06:43:34.749Z,77.9
2017-12-20T06:44:40.997Z,77.9
2017-12-20T06:46:05.080Z,78
2017-12-20T06:47:14.403Z,77.9
2017-12-20T06:48:21.315Z,78.1
2017-12-20T06:49:33.176Z,78
2017-12-20T06:50:37.368Z,78.1
2017-12-20T06:51:43.441Z,78.1
2017-12-20T06:52:48.086Z,78
2017-12-20T06:53:53.232Z,77.9
2017-12-20T06:54:56.230Z,77.7
2017-12-20T06:56:01.220Z,77.8
2017-12-20T06:57:04.211Z,77.6
2017-12-20T06:58:06.749Z,77.6
2017-12-20T06:59:09.236Z,77.7
2017-12-20T07:00:11.739Z,77.8
2017-12-20T07:01:14.525Z,77.7
2017-12-20T07:02:17.016Z,77.6
2017-12-20T07:03:19.513Z,77.5
2017-12-20T07:04:22.010Z,77.5
2017-12-20T07:05:24.501Z,77.5
2017-12-20T07:06:29.365Z,77.5
2017-12-20T07:07:37.267Z,77.5
2017-12-20T07:08:43.373Z,77.6
2017-12-20T07:09:48.287Z,77.7
2017-12-20T07:10:55.505Z,77.8
2017-12-20T07:11:59.745Z,78
2017-12-20T07:13:03.729Z,78
2017-12-20T07:14:07.506Z,77.9
2017-12-20T07:15:11.616Z,77.9
2017-12-20T07:16:15.908Z,78
2017-12-20T07:17:19.840Z,77.9
2017-12-20T07:18:22.707Z,77.8
2017-12-20T07:19:25.610Z,77.8
2017-12-20T07:20:44.866Z,77.9
2017-12-20T07:22:02.622Z,77.9
2017-12-20T07:23:08.354Z,77.9
2017-12-20T07:24:13.015Z,78
2017-12-20T07:25:18.053Z,78
2017-12-20T07:26:31.118Z,78.1
2017-12-20T07:27:34.640Z,78.2
2017-12-20T07:28:39.700Z,77.8
2017-12-20T07:29:45.692Z,77.9
2017-12-20T07:30:52.303Z,78
2017-12-20T07:31:59.930Z,78.2
2017-12-20T07:33:08.665Z,78.2
2017-12-20T07:34:25.476Z,78.3
2017-12-20T07:35:45.044Z,78.3
2017-12-20T07:36:53.618Z,78.4
2017-12-20T07:37:57.188Z,78.3
2017-12-20T07:39:01.920Z,78.1
2017-12-20T07:40:05.363Z,77.8
2017-12-20T07:41:10.468Z,77.7
2017-12-20T07:42:15.072Z,77.5
2017-12-20T07:43:19.877Z,77.2
2017-12-20T07:44:24.027Z,77.2
2017-12-20T07:45:26.934Z,77.3
2017-12-20T07:46:31.577Z,77.4
2017-12-20T07:47:36.659Z,77.3
2017-12-20T07:48:42.954Z,77.2
2017-12-20T07:49:47.943Z,77.2
2017-12-20T07:50:52.457Z,77.2
2017-12-20T07:51:58.472Z,77.2
2017-12-20T07:53:03.305Z,77.4
2017-12-20T07:54:08.173Z,77.6
2017-12-20T07:55:13.335Z,77.7
2017-12-20T07:56:16.325Z,77.9
2017-12-20T07:57:21.690Z,77.8
2017-12-20T07:58:26.251Z,77.7
2017-12-20T07:59:29.494Z,77.6
2017-12-20T08:00:34.176Z,77.6
2017-12-20T08:01:40.302Z,77.6
2017-12-20T08:02:45.536Z,77.6
2017-12-20T08:03:48.925Z,77.5
2017-12-20T08:04:51.704Z,77.5
2017-12-20T08:05:54.196Z,77.5
2017-12-20T08:06:56.714Z,77.6
2017-12-20T08:07:59.206Z,77.6
2017-12-20T08:09:01.989Z,77.4
2017-12-20T08:10:04.769Z,77.3
2017-12-20T08:11:07.274Z,77.4
2017-12-20T08:12:09.765Z,77.5
2017-12-20T08:13:12.553Z,77.5
2017-12-20T08:14:15.051Z,77.7
2017-12-20T08:15:17.546Z,77.8
2017-12-20T08:16:20.037Z,77.8
2017-12-20T08:17:22.542Z,77.7
2017-12-20T08:18:25.025Z,77.8
2017-12-20T08:19:27.530Z,77.8
2017-12-20T08:20:30.033Z,77.7
2017-12-20T08:21:32.816Z,77.6
2017-12-20T08:22:35.316Z,77.3
2017-12-20T08:23:37.810Z,77.4
2017-12-20T08:24:40.870Z,77.6
2017-12-20T08:25:43.361Z,77.8
2017-12-20T08:26:45.859Z,77.9
2017-12-20T08:27:48.350Z,78.1
2017-12-20T08:28:50.847Z,78.1
2017-12-20T08:29:53.344Z,78.2
2017-12-20T08:30:55.833Z,78.1
2017-12-20T08:31:58.339Z,78.2
2017-12-20T08:33:00.828Z,78
2017-12-20T08:34:03.636Z,78.1
2017-12-20T08:35:06.130Z,77.9
2017-12-20T08:36:08.919Z,77.8
2017-12-20T08:37:11.419Z,77.5
2017-12-20T08:38:13.909Z,77.5
2017-12-20T08:39:16.406Z,77.6
2017-12-20T08:40:18.913Z,77.8
2017-12-20T08:41:21.688Z,77.7
2017-12-20T08:42:24.191Z,77.8
2017-12-20T08:43:26.670Z,77.7
2017-12-20T08:44:29.169Z,77.7
2017-12-20T08:45:31.661Z,77.6
2017-12-20T08:46:34.157Z,77.6
2017-12-20T08:47:36.646Z,77.6
2017-12-20T08:48:39.144Z,77.6
2017-12-20T08:49:41.929Z,77.8
2017-12-20T08:50:44.726Z,77.8
2017-12-20T08:51:47.223Z,77.9
2017-12-20T08:52:49.715Z,77.9
2017-12-20T08:53:52.211Z,77.8
2017-12-20T08:54:54.717Z,77.6
2017-12-20T08:55:57.495Z,77.8
2017-12-20T08:57:00.278Z,78
2017-12-20T08:58:02.771Z,77.9
2017-12-20T08:59:05.273Z,77.9
2017-12-20T09:00:07.765Z,77.8
2017-12-20T09:01:10.261Z,77.9
2017-12-20T09:02:12.758Z,77.9
2017-12-20T09:03:15.253Z,78.2
2017-12-20T09:04:17.749Z,78.2
2017-12-20T09:05:20.568Z,78.1
2017-12-20T09:06:23.338Z,77.8
2017-12-20T09:07:25.831Z,77.7
2017-12-20T09:08:28.342Z,77.7
2017-12-20T09:09:30.830Z,77.8
2017-12-20T09:10:33.659Z,77.9
2017-12-20T09:11:36.161Z,77.9
2017-12-20T09:12:38.653Z,77.9
2017-12-20T09:13:41.150Z,77.8
2017-12-20T09:14:43.647Z,77.9
2017-12-20T09:15:46.419Z,78
2017-12-20T09:16:49.225Z,78.2
2017-12-20T09:17:51.740Z,78.2
2017-12-20T09:18:54.520Z,78.4
2017-12-20T09:19:57.015Z,78.6
2017-12-20T09:20:59.507Z,78.5
2017-12-20T09:22:01.993Z,78.3
2017-12-20T09:23:04.797Z,78.2
2017-12-20T09:24:07.288Z,78
2017-12-20T09:25:10.363Z,78
2017-12-20T09:26:12.867Z,78
2017-12-20T09:27:15.354Z,77.9
2017-12-20T09:28:18.139Z,77.9
2017-12-20T09:29:20.637Z,77.9
2017-12-20T09:30:23.406Z,78
2017-12-20T09:31:26.198Z,77.8
2017-12-20T09:32:28.697Z,77.5
2017-12-20T09:33:31.187Z,77.3
2017-12-20T09:34:33.676Z,77.5
2017-12-20T09:35:36.174Z,77.6
2017-12-20T09:36:38.672Z,77.6
2017-12-20T09:37:41.164Z,77.5
2017-12-20T09:38:43.649Z,77.5
2017-12-20T09:39:46.150Z,77.6
2017-12-20T09:40:48.649Z,77.7
2017-12-20T09:41:51.140Z,77.9
2017-12-20T09:42:53.929Z,77.8
2017-12-20T09:43:56.432Z,77.8
2017-12-20T09:44:58.927Z,77.9
2017-12-20T09:46:01.718Z,77.8
2017-12-20T09:47:04.213Z,77.9
2017-12-20T09:48:06.706Z,77.8
2017-12-20T09:49:09.225Z,77.8
2017-12-20T09:50:11.717Z,77.8
2017-12-20T09:51:14.208Z,77.9
2017-12-20T09:52:16.704Z,78
2017-12-20T09:53:19.201Z,78.1
2017-12-20T09:54:22.000Z,78.1
2017-12-20T09:55:24.788Z,78.1
2017-12-20T09:56:27.554Z,78.1
2017-12-20T09:57:30.342Z,78.2
2017-12-20T09:58:32.837Z,78.2
2017-12-20T09:59:35.337Z,78.3
2017-12-20T10:00:37.841Z,78.4
2017-12-20T10:01:40.331Z,78.4
2017-12-20T10:02:43.117Z,78.4
2017-12-20T10:03:45.625Z,78.2
2017-12-20T10:04:48.116Z,78.2
2017-12-20T10:05:50.896Z,78
2017-12-20T10:06:53.381Z,78.2
2017-12-20T10:07:55.882Z,78.2
2017-12-20T10:08:58.379Z,78.1
2017-12-20T10:10:00.875Z,77.9
2017-12-20T10:11:03.377Z,78
2017-12-20T10:14:37.205Z,76.4
2017-12-20T10:15:37.047Z,76.2
2017-12-20T10:16:39.518Z,77.9
2017-12-20T10:17:42.015Z,77.8
2017-12-20T10:18:44.505Z,77.9
2017-12-20T10:19:46.998Z,78
2017-12-20T10:20:49.497Z,78.1
2017-12-20T10:21:52.004Z,78.2
2017-12-20T10:22:54.491Z,78.3
2017-12-20T10:23:57.000Z,78.5
2017-12-20T10:24:59.481Z,78.7
2017-12-20T10:26:01.981Z,78.4
2017-12-20T10:27:04.473Z,78.2
2017-12-20T10:28:06.970Z,78.2
2017-12-20T10:29:09.458Z,78.2
2017-12-20T10:30:11.954Z,78.2
2017-12-20T10:31:14.450Z,78.2
2017-12-20T10:32:16.951Z,78.1
2017-12-20T10:33:19.772Z,78.3
2017-12-20T10:34:22.278Z,78.3
2017-12-20T10:35:24.759Z,78.5
2017-12-20T10:36:27.261Z,78.5
2017-12-20T10:37:29.764Z,78.3
2017-12-20T10:38:32.249Z,78.2
2017-12-20T10:39:34.748Z,78.2
2017-12-20T10:40:37.245Z,78.2
2017-12-20T10:41:39.723Z,78.2
2017-12-20T10:42:42.232Z,78.2
2017-12-20T10:43:45.014Z,78.3
2017-12-20T10:44:47.505Z,78.4
2017-12-20T10:45:50.580Z,78.4
2017-12-20T10:46:53.078Z,78.5
2017-12-20T10:47:55.556Z,78.5
2017-12-20T10:48:58.050Z,78.5
2017-12-20T10:50:00.564Z,78.6
2017-12-20T10:51:03.059Z,78.5
2017-12-20T10:52:05.555Z,78.3
2017-12-20T10:53:08.337Z,78.3
2017-12-20T10:54:10.829Z,78.4
2017-12-20T10:55:13.634Z,78.4
2017-12-20T10:56:16.128Z,78.4
2017-12-20T10:57:18.916Z,78.3
2017-12-20T10:58:21.700Z,78.4
2017-12-20T10:59:24.204Z,78.5
2017-12-20T11:00:27.274Z,78.6
2017-12-20T11:01:30.379Z,78.6
2017-12-20T11:02:32.876Z,78.6
2017-12-20T11:03:35.372Z,78.7
2017-12-20T11:04:38.180Z,78.8
2017-12-20T11:05:40.680Z,78.8
2017-12-20T11:06:43.455Z,78.8
2017-12-20T11:07:45.959Z,78.9
2017-12-20T11:08:48.461Z,78.8
2017-12-20T11:09:50.947Z,78.7
2017-12-20T11:10:53.443Z,78.6
2017-12-20T11:11:55.940Z,78.4
2017-12-20T11:12:58.434Z,78.3
2017-12-20T11:14:00.937Z,78.3
2017-12-20T11:15:03.433Z,78.3
2017-12-20T11:16:05.920Z,78.5
2017-12-20T11:17:08.710Z,78.5
2017-12-20T11:18:11.200Z,78.5
2017-12-20T11:19:14.287Z,78.4
2017-12-20T11:20:16.786Z,78.4
2017-12-20T11:21:19.283Z,78.4
2017-12-20T11:22:22.059Z,78.6
2017-12-20T11:23:24.567Z,78.6
2017-12-20T11:24:27.056Z,78.6
2017-12-20T11:25:29.550Z,78.5
2017-12-20T11:26:32.047Z,78.6
2017-12-20T11:27:34.544Z,78.5
2017-12-20T11:28:37.039Z,78.4
2017-12-20T11:29:39.544Z,78.5
2017-12-20T11:30:42.029Z,78.4
2017-12-20T11:31:45.106Z,78.3
2017-12-20T11:32:47.614Z,78.2
2017-12-20T11:33:50.111Z,78
2017-12-20T11:34:52.619Z,78.1
2017-12-20T11:35:55.412Z,78.2
2017-12-20T11:36:57.905Z,78.2
2017-12-20T11:38:00.405Z,78.2
2017-12-20T11:39:02.904Z,78.3
2017-12-20T11:40:05.381Z,78.2
2017-12-20T11:41:07.880Z,78.3
2017-12-20T11:42:10.382Z,78.4
2017-12-20T11:43:13.163Z,78.5
2017-12-20T11:44:15.663Z,78.3
2017-12-20T11:45:18.168Z,78.2
2017-12-20T11:46:20.666Z,78
2017-12-20T11:47:23.142Z,78
2017-12-20T11:48:25.643Z,78
2017-12-20T11:49:28.429Z,78
2017-12-20T11:50:30.923Z,78.1
2017-12-20T11:51:33.414Z,78
2017-12-20T11:52:36.214Z,78
2017-12-20T11:53:38.709Z,77.9
2017-12-20T11:54:41.539Z,78
2017-12-20T11:55:44.032Z,78.2
2017-12-20T11:56:46.535Z,78.1
2017-12-20T11:57:49.026Z,78.2
2017-12-20T11:58:51.538Z,78.3
2017-12-20T11:59:54.320Z,78.4
2017-12-20T12:00:56.822Z,78.5
2017-12-20T12:01:59.313Z,78.3
2017-12-20T12:03:01.816Z,78.2
2017-12-20T12:04:04.305Z,78.2
2017-12-20T12:05:06.805Z,78.2
2017-12-20T12:06:09.291Z,78.1
2017-12-20T12:07:12.092Z,78.1
2017-12-20T12:08:14.576Z,78.2
2017-12-20T12:09:17.074Z,78.4
2017-12-20T12:10:19.570Z,78.3
2017-12-20T12:11:22.065Z,78.4
2017-12-20T12:12:24.555Z,78.2
2017-12-20T12:13:27.071Z,78.2
2017-12-20T12:14:29.571Z,78.3
2017-12-20T12:15:32.051Z,78.2
2017-12-20T12:16:34.551Z,78.2
2017-12-20T12:17:37.336Z,78.2
2017-12-20T12:18:39.842Z,78.3
2017-12-20T12:19:42.336Z,78.3
2017-12-20T12:20:44.839Z,78.3
2017-12-20T12:21:47.330Z,78.2
2017-12-20T12:22:49.840Z,78.3
2017-12-20T12:23:52.339Z,78.5
2017-12-20T12:24:54.832Z,78.5
2017-12-20T12:25:57.328Z,78.5
2017-12-20T12:26:59.821Z,78.6
2017-12-20T12:28:02.320Z,78.6
2017-12-20T12:29:04.817Z,78.4
2017-12-20T12:30:07.590Z,78.2
2017-12-20T12:31:10.091Z,78.1
2017-12-20T12:32:12.599Z,78.2
2017-12-20T12:33:15.089Z,78.2
2017-12-20T12:34:17.582Z,78.1
2017-12-20T12:35:20.673Z,78.1
2017-12-20T12:36:23.155Z,78.1
2017-12-20T12:37:25.970Z,78
2017-12-20T12:38:28.467Z,78.2
2017-12-20T12:39:30.956Z,78.2
2017-12-20T12:40:33.459Z,78.4
2017-12-20T12:41:35.966Z,78.3
2017-12-20T12:42:38.752Z,78.4
2017-12-20T12:43:41.248Z,78.3
2017-12-20T12:44:43.750Z,78.2
2017-12-20T12:45:46.550Z,78.1
2017-12-20T12:46:49.029Z,78.1
2017-12-20T12:47:51.535Z,78.1
2017-12-20T12:48:54.028Z,78
2017-12-20T12:49:56.530Z,78
2017-12-20T12:50:59.333Z,78.2
2017-12-20T12:52:01.827Z,78.3
2017-12-20T12:53:04.322Z,78.2
2017-12-20T12:54:06.826Z,78.3
2017-12-20T12:55:09.311Z,78.2
2017-12-20T12:56:11.810Z,78.3
2017-12-20T12:57:14.298Z,78.5
2017-12-20T12:58:16.793Z,78.3
2017-12-20T12:59:19.292Z,78.4
2017-12-20T13:00:21.791Z,78.3
2017-12-20T13:01:24.271Z,78.2
2017-12-20T13:02:26.774Z,78.1
2017-12-20T13:03:29.261Z,77.8
2017-12-20T13:04:32.342Z,77.7
2017-12-20T13:05:34.832Z,77.7
2017-12-20T13:06:37.323Z,77.7
2017-12-20T13:07:40.123Z,77.8
2017-12-20T13:08:42.628Z,77.8
2017-12-20T13:09:45.408Z,77.8
2017-12-20T13:10:47.899Z,78
2017-12-20T13:11:50.387Z,78
2017-12-20T13:12:52.893Z,77.9
2017-12-20T13:13:55.396Z,78.2
2017-12-20T13:14:58.174Z,78.1
2017-12-20T13:16:00.957Z,78.3
2017-12-20T13:17:03.454Z,78.4
2017-12-20T13:18:05.953Z,78.3
2017-12-20T13:19:08.733Z,78.6
2017-12-20T13:20:11.247Z,78.6
2017-12-20T13:21:13.721Z,78.7
2017-12-20T13:22:16.235Z,78.7
2017-12-20T13:23:18.725Z,78.7
2017-12-20T13:24:21.222Z,78.6
2017-12-20T13:25:23.722Z,78.5
2017-12-20T13:26:26.221Z,78.3
2017-12-20T13:27:28.706Z,78.3
2017-12-20T13:28:31.199Z,78.2
2017-12-20T13:29:33.691Z,78.3
2017-12-20T13:30:36.477Z,78.3
2017-12-20T13:31:38.978Z,78.2
2017-12-20T13:32:41.464Z,78.3
2017-12-20T13:33:43.953Z,78.4
2017-12-20T13:34:46.465Z,78.6
2017-12-20T13:35:48.951Z,78.6
2017-12-20T13:36:51.467Z,78.7
2017-12-20T13:37:53.962Z,78.5
2017-12-20T13:38:56.461Z,78.3
2017-12-20T13:39:58.960Z,78.1
2017-12-20T13:42:25.747Z,75.9
2017-12-20T13:43:28.225Z,77.4
2017-12-20T13:44:30.725Z,77.5
2017-12-20T13:45:33.210Z,77.8
2017-12-20T13:46:35.704Z,78
2017-12-20T13:47:38.200Z,78.1
2017-12-20T13:48:40.704Z,78.1
2017-12-20T13:49:43.191Z,78.2
2017-12-20T13:50:45.692Z,78.3
2017-12-20T13:51:48.183Z,78.4
2017-12-20T13:52:50.681Z,78.5
2017-12-20T13:53:53.174Z,78.6
2017-12-20T13:54:55.679Z,78.5
2017-12-20T13:55:58.175Z,78.6
2017-12-20T13:57:00.970Z,78.7
2017-12-20T13:58:03.468Z,78.8
2017-12-20T13:59:05.973Z,78.6
2017-12-20T14:00:09.399Z,78.7
2017-12-20T14:01:11.911Z,78.8
2017-12-20T14:02:14.393Z,78.8
2017-12-20T14:03:16.901Z,78.6
2017-12-20T14:04:19.396Z,78.6
2017-12-20T14:05:21.881Z,78.5
2017-12-20T14:06:24.381Z,78.4
2017-12-20T14:07:26.871Z,78.3
2017-12-20T14:08:29.358Z,78.4